createdAt,value
2018-09-02T00:00:04.106Z,4.20
2018-09-02T00:02:34.246Z,4.80
2018-09-02T00:05:03.535Z,4.90
2018-09-02T00:07:34.193Z,5.43
2018-09-02T00:10:04.858Z,5.10
2018-09-02T00:12:34.177Z,4.93
2018-09-02T00:15:03.334Z,5.47
2018-09-02T00:17:34.700Z,4.00
2018-09-02T00:20:03.901Z,4.80
2018-09-02T00:22:32.881Z,4.70
2018-09-02T00:25:01.930Z,4.70
2018-09-02T00:27:31.094Z,4.53
2018-09-02T00:30:00.098Z,4.63
2018-09-02T00:32:29.090Z,5.20
2018-09-02T00:34:58.097Z,4.57
2018-09-02T00:37:27.493Z,4.53
2018-09-02T00:39:56.557Z,5.37
2018-09-02T00:42:25.565Z,5.40
2018-09-02T00:44:54.664Z,5.50
2018-09-02T00:47:23.669Z,4.70
2018-09-02T00:49:52.781Z,3.77
2018-09-02T00:52:21.766Z,4.77
2018-09-02T00:54:50.845Z,4.50
2018-09-02T00:57:25.863Z,4.43
2018-09-02T00:59:57.719Z,5.30
2018-09-02T01:02:26.840Z,4.90
2018-09-02T01:04:56.052Z,4.67
2018-09-02T01:07:25.054Z,4.33
2018-09-02T01:09:54.116Z,4.83
2018-09-02T01:12:24.180Z,4.93
2018-09-02T01:14:54.276Z,5.10
2018-09-02T01:17:23.270Z,5.07
2018-09-02T01:19:53.074Z,5.37
2018-09-02T01:22:22.121Z,4.43
2018-09-02T01:24:51.133Z,4.40
2018-09-02T01:27:20.142Z,4.80
2018-09-02T01:29:49.154Z,4.13
2018-09-02T01:32:19.657Z,4.63
2018-09-02T01:34:49.317Z,4.33
2018-09-02T01:37:18.410Z,4.30
2018-09-02T01:39:47.861Z,4.70
2018-09-02T01:42:16.875Z,4.27
2018-09-02T01:44:45.897Z,4.97
2018-09-02T01:47:14.958Z,4.70
2018-09-02T01:49:43.988Z,4.83
2018-09-02T01:52:13.004Z,5.40
2018-09-02T01:54:42.012Z,5.70
2018-09-02T01:57:11.033Z,4.70
2018-09-02T01:59:40.026Z,5.23
2018-09-02T02:02:09.036Z,5.57
2018-09-02T02:04:40.989Z,4.97
2018-09-02T02:07:11.765Z,5.07
2018-09-02T02:09:41.021Z,5.17
2018-09-02T02:12:10.109Z,5.10
2018-09-02T02:14:40.134Z,4.93
2018-09-02T02:17:09.263Z,5.17
2018-09-02T02:19:38.327Z,4.90
2018-09-02T02:22:08.434Z,5.13
2018-09-02T02:24:38.957Z,4.60
2018-09-02T02:27:08.033Z,5.40
2018-09-02T02:29:37.182Z,5.10
2018-09-02T02:32:06.296Z,4.70
2018-09-02T02:34:35.373Z,4.70
2018-09-02T02:37:05.224Z,5.23
2018-09-02T02:39:34.274Z,6.43
2018-09-02T02:42:04.152Z,5.80
2018-09-02T02:44:33.154Z,7.13
2018-09-02T02:47:02.506Z,7.20
2018-09-02T02:49:31.494Z,6.30
2018-09-02T02:52:00.567Z,5.00
2018-09-02T02:54:29.656Z,7.07
2018-09-02T02:56:58.682Z,6.43
2018-09-02T02:59:27.750Z,6.70
2018-09-02T03:01:57.585Z,6.60
2018-09-02T03:04:26.574Z,6.80
2018-09-02T03:06:55.611Z,5.77
2018-09-02T03:09:26.504Z,6.30
2018-09-02T03:11:55.761Z,5.70
2018-09-02T03:14:24.763Z,6.40
2018-09-02T03:16:53.833Z,5.43
2018-09-02T03:19:22.830Z,5.90
2018-09-02T03:21:53.050Z,5.57
2018-09-02T03:24:22.744Z,5.90
2018-09-02T03:26:51.768Z,6.17
2018-09-02T03:29:20.775Z,6.40
2018-09-02T03:31:49.808Z,6.23
2018-09-02T03:34:18.800Z,6.17
2018-09-02T03:36:47.861Z,5.70
2018-09-02T03:39:16.869Z,5.70
2018-09-02T03:41:45.882Z,5.70
2018-09-02T03:44:14.909Z,6.87
2018-09-02T03:46:43.934Z,7.27
2018-09-02T03:49:12.985Z,6.87
2018-09-02T03:51:42.062Z,7.53
2018-09-02T03:54:11.066Z,7.50
2018-09-02T03:56:40.088Z,7.97
2018-09-02T03:59:09.115Z,7.00
2018-09-02T04:01:38.164Z,7.63
2018-09-02T04:04:07.304Z,7.00
2018-09-02T04:06:36.526Z,7.23
2018-09-02T04:09:10.115Z,7.40
2018-09-02T04:11:39.416Z,7.70
2018-09-02T04:14:08.420Z,7.50
2018-09-02T04:16:37.458Z,7.27
2018-09-02T04:19:06.493Z,7.37
2018-09-02T04:21:35.494Z,7.70
2018-09-02T04:24:04.521Z,7.53
2018-09-02T04:26:34.284Z,7.23
2018-09-02T04:29:03.434Z,7.50
2018-09-02T04:31:32.461Z,8.20
2018-09-02T04:34:01.477Z,7.87
2018-09-02T04:36:30.473Z,8.77
2018-09-02T04:38:59.602Z,8.70
2018-09-02T04:41:28.639Z,9.90
2018-09-02T04:43:57.682Z,9.57
2018-09-02T04:46:26.712Z,9.83
2018-09-02T04:48:55.737Z,10.33
2018-09-02T04:51:24.726Z,9.90
2018-09-02T04:53:53.752Z,9.53
2018-09-02T04:56:22.787Z,8.30
2018-09-02T04:58:51.873Z,9.00
2018-09-02T05:01:20.862Z,8.20
2018-09-02T05:03:49.886Z,9.07
2018-09-02T05:06:18.892Z,10.63
2018-09-02T05:08:47.901Z,8.80
2018-09-02T05:11:17.500Z,9.80
2018-09-02T05:13:46.510Z,9.87
2018-09-02T05:16:15.491Z,8.73
2018-09-02T05:18:44.492Z,8.80
2018-09-02T05:21:13.500Z,8.47
2018-09-02T05:23:42.600Z,8.97
2018-09-02T05:26:12.087Z,9.30
2018-09-02T05:28:41.113Z,8.70
2018-09-02T05:31:10.104Z,8.63
2018-09-02T05:33:39.149Z,9.77
2018-09-02T05:36:08.206Z,9.57
2018-09-02T05:38:37.643Z,8.63
2018-09-02T05:41:06.603Z,9.17
2018-09-02T05:43:35.600Z,9.67
2018-09-02T05:46:04.834Z,10.20
2018-09-02T05:48:34.449Z,8.23
2018-09-02T05:51:03.401Z,8.90
2018-09-02T05:53:32.400Z,8.53
2018-09-02T05:56:01.333Z,8.63
2018-09-02T05:58:30.956Z,8.03
2018-09-02T06:00:59.937Z,7.67
2018-09-02T06:03:28.880Z,7.47
2018-09-02T06:05:57.824Z,6.90
2018-09-02T06:08:27.385Z,6.73
2018-09-02T06:10:56.345Z,7.00
2018-09-02T06:13:25.326Z,7.10
2018-09-02T06:15:54.238Z,7.33
2018-09-02T06:18:23.183Z,7.10
2018-09-02T06:20:52.170Z,7.50
2018-09-02T06:23:21.186Z,6.70
2018-09-02T06:25:50.129Z,7.65
2018-09-02T06:28:19.116Z,6.30
2018-09-02T06:30:48.065Z,6.70
2018-09-02T06:33:17.526Z,6.63
2018-09-02T06:35:46.513Z,6.73
2018-09-02T06:38:15.509Z,6.30
2018-09-02T06:40:44.428Z,6.80
2018-09-02T06:43:18.569Z,6.73
2018-09-02T06:45:48.045Z,6.10
2018-09-02T06:48:20.966Z,6.70
2018-09-02T06:50:50.219Z,6.47
2018-09-02T06:53:19.181Z,6.20
2018-09-02T06:55:48.153Z,6.00
2018-09-02T06:58:17.116Z,6.90
2018-09-02T07:00:46.038Z,6.67
2018-09-02T07:03:15.013Z,5.70
2018-09-02T07:05:45.898Z,5.60
2018-09-02T07:08:14.969Z,6.30
2018-09-02T07:10:43.933Z,5.90
2018-09-02T07:13:12.950Z,5.47
2018-09-02T07:15:41.972Z,5.63
2018-09-02T07:18:10.983Z,5.37
2018-09-02T07:20:40.013Z,5.43
2018-09-02T07:23:09.040Z,5.13
2018-09-02T07:25:38.004Z,5.17
2018-09-02T07:28:09.871Z,5.07
2018-09-02T07:30:38.933Z,5.33
2018-09-02T07:33:08.470Z,5.13
2018-09-02T07:35:37.551Z,5.40
2018-09-02T07:38:08.022Z,5.37
2018-09-02T07:40:37.340Z,6.23
2018-09-02T07:43:06.372Z,5.47
2018-09-02T07:45:35.790Z,6.20
2018-09-02T07:48:06.095Z,5.23
2018-09-02T07:50:35.180Z,5.23
2018-09-02T07:53:04.116Z,5.20
2018-09-02T07:55:33.217Z,5.17
2018-09-02T07:58:02.170Z,4.87
2018-09-02T08:00:32.053Z,5.00
2018-09-02T08:03:01.330Z,4.30
2018-09-02T08:05:30.233Z,4.30
2018-09-02T08:07:59.086Z,3.47
2018-09-02T08:10:28.061Z,3.63
2018-09-02T08:12:57.363Z,3.90
2018-09-02T08:15:26.236Z,3.83
2018-09-02T08:17:55.166Z,4.70
2018-09-02T08:20:24.133Z,3.43
2018-09-02T08:22:53.128Z,3.30
2018-09-02T08:25:22.100Z,3.07
2018-09-02T08:27:51.445Z,3.80
2018-09-02T08:30:20.736Z,3.60
2018-09-02T08:32:50.013Z,4.03
2018-09-02T08:35:18.960Z,5.67
2018-09-02T08:37:47.885Z,10.30
2018-09-02T08:40:16.891Z,3.33
2018-09-02T08:42:45.837Z,3.23
2018-09-02T08:45:14.812Z,3.67
2018-09-02T08:47:43.742Z,6.70
2018-09-02T08:50:12.769Z,8.73
2018-09-02T08:52:41.705Z,9.83
2018-09-02T08:55:10.756Z,3.33
2018-09-02T08:57:39.704Z,2.90
2018-09-02T09:00:08.997Z,3.17
2018-09-02T09:02:37.929Z,4.37
2018-09-02T09:05:06.889Z,3.30
2018-09-02T09:07:36.007Z,3.40
2018-09-02T09:10:05.061Z,2.87
2018-09-02T09:12:33.997Z,4.70
2018-09-02T09:15:02.984Z,2.90
2018-09-02T09:17:31.986Z,4.20
2018-09-02T09:20:00.936Z,3.17
2018-09-02T09:22:29.911Z,4.00
2018-09-02T09:24:58.907Z,3.30
2018-09-02T09:27:27.962Z,3.53
2018-09-02T09:29:56.972Z,4.40
2018-09-02T09:32:25.982Z,4.10
2018-09-02T09:34:55.988Z,3.20
2018-09-02T09:37:24.944Z,4.13
2018-09-02T09:39:53.924Z,4.00
2018-09-02T09:42:22.889Z,3.80
2018-09-02T09:44:51.905Z,4.07
2018-09-02T09:47:20.901Z,4.27
2018-09-02T09:49:49.888Z,3.90
2018-09-02T09:52:19.689Z,3.73
2018-09-02T09:54:48.609Z,3.90
2018-09-02T09:57:18.192Z,3.60
2018-09-02T09:59:47.124Z,4.07
2018-09-02T10:02:16.084Z,3.80
2018-09-02T10:04:45.024Z,3.80
2018-09-02T10:07:13.986Z,3.73
2018-09-02T10:09:42.981Z,3.67
2018-09-02T10:12:11.916Z,4.00
2018-09-02T10:14:40.849Z,3.60
2018-09-02T10:17:10.344Z,3.40
2018-09-02T10:19:39.257Z,3.60
2018-09-02T10:22:08.221Z,3.17
2018-09-02T10:24:37.204Z,3.00
2018-09-02T10:27:06.256Z,3.23
2018-09-02T10:29:35.251Z,3.00
2018-09-02T10:32:05.609Z,3.20
2018-09-02T10:34:34.531Z,3.50
2018-09-02T10:37:03.530Z,4.60
2018-09-02T10:39:34.761Z,3.43
2018-09-02T10:42:03.720Z,3.50
2018-09-02T10:44:33.161Z,3.40
2018-09-02T10:47:02.089Z,3.50
2018-09-02T10:49:31.097Z,3.50
2018-09-02T10:52:00.045Z,4.00
2018-09-02T10:54:29.035Z,3.80
2018-09-02T10:56:58.061Z,3.90
2018-09-02T10:59:27.078Z,4.07
2018-09-02T11:01:56.099Z,3.60
2018-09-02T11:04:25.185Z,3.70
2018-09-02T11:06:54.202Z,3.97
2018-09-02T11:09:23.174Z,3.53
2018-09-02T11:11:52.234Z,3.67
2018-09-02T11:14:21.226Z,2.80
2018-09-02T11:16:50.250Z,3.93
2018-09-02T11:19:19.230Z,3.17
2018-09-02T11:21:48.258Z,4.00
2018-09-02T11:24:17.274Z,3.07
2018-09-02T11:26:46.243Z,3.50
2018-09-02T11:29:15.276Z,3.30
2018-09-02T11:31:44.283Z,3.43
2018-09-02T11:34:13.289Z,3.10
2018-09-02T11:36:43.526Z,3.33
2018-09-02T11:39:13.367Z,3.27
2018-09-02T11:41:42.342Z,3.50
2018-09-02T11:44:11.328Z,3.33
2018-09-02T11:46:40.313Z,3.37
2018-09-02T11:49:09.356Z,3.00
2018-09-02T11:51:38.358Z,2.77
2018-09-02T11:56:47.098Z,3.37
2018-09-02T11:59:16.057Z,3.37
2018-09-02T12:01:45.021Z,3.00
2018-09-02T12:04:17.265Z,3.27
2018-09-02T12:06:46.221Z,2.97
2018-09-02T12:09:15.207Z,3.13
2018-09-02T12:11:44.215Z,3.47
2018-09-02T12:14:13.169Z,2.77
2018-09-02T12:16:42.126Z,3.83
2018-09-02T12:19:11.214Z,3.23
2018-09-02T12:21:40.214Z,2.97
2018-09-02T12:24:09.229Z,3.07
2018-09-02T12:26:38.177Z,3.67
2018-09-02T12:29:07.181Z,3.93
2018-09-02T12:31:36.252Z,2.90
2018-09-02T12:34:05.181Z,3.20
2018-09-02T12:36:34.126Z,3.20
2018-09-02T12:39:03.210Z,3.70
2018-09-02T12:41:32.163Z,4.03
2018-09-02T12:44:01.164Z,3.73
2018-09-02T12:46:30.126Z,3.37
2018-09-02T12:48:59.091Z,4.03
2018-09-02T12:51:28.079Z,2.90
2018-09-02T12:53:57.149Z,3.10
2018-09-02T12:56:26.116Z,3.10
2018-09-02T12:58:55.110Z,3.30
2018-09-02T13:01:24.255Z,3.53
2018-09-02T13:03:53.322Z,3.20
2018-09-02T13:06:22.345Z,3.60
2018-09-02T13:08:51.323Z,3.27
2018-09-02T13:11:20.355Z,3.40
2018-09-02T13:13:49.334Z,3.37
2018-09-02T13:16:18.306Z,3.40
2018-09-02T13:18:47.471Z,3.17
2018-09-02T13:21:16.433Z,3.10
2018-09-02T13:23:45.457Z,3.00
2018-09-02T13:26:15.376Z,3.10
2018-09-02T13:28:44.774Z,3.27
2018-09-02T13:31:18.750Z,3.13
2018-09-02T13:33:47.835Z,3.73
2018-09-02T13:36:16.778Z,3.10
2018-09-02T13:38:45.846Z,3.43
2018-09-02T13:41:15.525Z,3.37
2018-09-02T13:43:44.515Z,3.20
2018-09-02T13:46:13.642Z,3.10
2018-09-02T13:48:42.695Z,3.67
2018-09-02T13:51:11.723Z,3.53
2018-09-02T13:53:40.713Z,3.20
2018-09-02T13:56:09.768Z,2.87
2018-09-02T13:58:39.048Z,3.53
2018-09-02T14:01:08.623Z,3.27
2018-09-02T14:03:40.044Z,3.83
2018-09-02T14:06:09.046Z,3.40
2018-09-02T14:08:37.982Z,2.90
2018-09-02T14:11:06.920Z,3.60
2018-09-02T14:13:36.795Z,3.00
2018-09-02T14:16:05.765Z,3.30
2018-09-02T14:18:34.682Z,2.90
2018-09-02T14:21:03.761Z,2.77
2018-09-02T14:23:32.758Z,3.63
2018-09-02T14:26:01.741Z,3.00
2018-09-02T14:28:31.068Z,3.57
2018-09-02T14:31:00.229Z,3.50
2018-09-02T14:33:29.430Z,3.23
2018-09-02T14:35:58.746Z,3.63
2018-09-02T14:38:27.769Z,3.20
2018-09-02T14:40:56.797Z,3.30
2018-09-02T14:43:25.780Z,4.00
2018-09-02T14:45:54.728Z,3.17
2018-09-02T14:48:23.739Z,3.47
2018-09-02T14:50:52.821Z,3.40
2018-09-02T14:53:21.663Z,2.90
2018-09-02T14:55:50.600Z,3.03
2018-09-02T14:58:19.550Z,3.77
2018-09-02T15:00:48.592Z,3.50
2018-09-02T15:03:17.843Z,3.40
2018-09-02T15:05:47.174Z,3.50
2018-09-02T15:08:16.566Z,3.10
2018-09-02T15:10:45.790Z,3.00
2018-09-02T15:13:17.476Z,3.00
2018-09-02T15:15:46.538Z,3.60
2018-09-02T15:18:15.457Z,3.73
2018-09-02T15:20:44.475Z,3.33
2018-09-02T15:23:13.404Z,3.40
2018-09-02T15:25:42.401Z,4.07
2018-09-02T15:28:11.344Z,3.23
2018-09-02T15:30:40.332Z,3.50
2018-09-02T15:33:09.239Z,3.50
2018-09-02T15:35:38.209Z,3.23
2018-09-02T15:38:07.172Z,3.30
2018-09-02T15:40:55.664Z,3.13
2018-09-02T15:43:24.579Z,2.73
2018-09-02T15:45:53.519Z,3.57
2018-09-02T15:48:22.426Z,3.37
2018-09-02T15:50:51.358Z,3.80
2018-09-02T15:53:20.387Z,3.00
2018-09-02T15:55:51.084Z,3.80
2018-09-02T15:58:20.021Z,3.60
2018-09-02T16:00:49.040Z,3.40
2018-09-02T16:03:17.943Z,3.27
2018-09-02T16:05:46.925Z,3.27
2018-09-02T16:08:15.889Z,3.20
2018-09-02T16:10:44.786Z,3.30
2018-09-02T16:13:16.324Z,3.27
2018-09-02T16:15:45.246Z,3.13
2018-09-02T16:18:14.182Z,3.90
2018-09-02T16:20:43.106Z,3.53
2018-09-02T16:23:12.035Z,3.93
2018-09-02T16:25:42.897Z,3.60
2018-09-02T16:28:11.847Z,3.50
2018-09-02T16:30:40.753Z,3.40
2018-09-02T16:33:09.668Z,4.07
2018-09-02T16:35:38.592Z,4.03
2018-09-02T16:38:07.560Z,3.90
2018-09-02T16:40:36.494Z,4.13
2018-09-02T16:43:05.679Z,3.43
2018-09-02T16:45:34.600Z,3.60
2018-09-02T16:48:03.640Z,3.77
2018-09-02T16:50:33.657Z,4.60
2018-09-02T16:53:02.661Z,4.27
2018-09-02T16:55:31.575Z,3.90
2018-09-02T16:58:00.539Z,3.80
2018-09-02T17:00:29.456Z,4.10
2018-09-02T17:02:58.753Z,3.60
2018-09-02T17:05:27.669Z,3.80
2018-09-02T17:07:56.676Z,3.90
2018-09-02T17:10:25.595Z,4.17
2018-09-02T17:12:54.633Z,4.20
2018-09-02T17:15:23.496Z,4.10
2018-09-02T17:17:52.537Z,4.30
2018-09-02T17:20:24.921Z,4.30
2018-09-02T17:22:58.085Z,4.77
2018-09-02T17:25:27.068Z,4.00
2018-09-02T17:27:56.022Z,4.60
2018-09-02T17:30:32.206Z,4.80
2018-09-02T17:33:01.313Z,4.47
2018-09-02T17:35:30.423Z,4.80
2018-09-02T17:37:59.381Z,4.47
2018-09-02T17:40:28.379Z,4.57
2018-09-02T17:42:57.748Z,5.73
2018-09-02T17:45:26.681Z,4.30
2018-09-02T17:47:56.052Z,4.70
2018-09-02T17:50:24.974Z,4.43
2018-09-02T17:52:53.893Z,4.00
2018-09-02T17:55:23.150Z,4.10
2018-09-02T17:57:52.912Z,4.70
2018-09-02T18:00:27.798Z,4.40
2018-09-02T18:02:56.903Z,4.33
2018-09-02T18:05:25.871Z,4.43
2018-09-02T18:07:55.555Z,4.10
2018-09-02T18:10:24.534Z,4.20
2018-09-02T18:12:53.524Z,5.27
2018-09-02T18:15:22.547Z,5.23
2018-09-02T18:17:51.618Z,4.53
2018-09-02T18:20:21.348Z,5.37
2018-09-02T18:22:50.353Z,6.07
2018-09-02T18:25:21.229Z,5.70
2018-09-02T18:27:53.449Z,4.20
2018-09-02T18:30:27.132Z,5.03
2018-09-02T18:32:56.656Z,5.00
2018-09-02T18:35:25.809Z,4.00
2018-09-02T18:37:55.040Z,4.77
2018-09-02T18:40:24.453Z,4.73
2018-09-02T18:42:53.742Z,3.80
2018-09-02T18:45:22.976Z,4.10
2018-09-02T18:47:52.362Z,4.40
2018-09-02T18:50:21.943Z,4.77
2018-09-02T18:52:51.794Z,4.10
2018-09-02T18:55:21.660Z,4.37
2018-09-02T18:57:52.306Z,5.20
2018-09-02T19:00:21.719Z,4.47
2018-09-02T19:02:51.116Z,4.07
2018-09-02T19:05:20.568Z,4.70
2018-09-02T19:07:52.325Z,3.57
2018-09-02T19:10:25.464Z,4.70
2018-09-02T19:15:46.090Z,5.17
2018-09-02T19:18:19.760Z,4.10
2018-09-02T19:20:48.912Z,3.90
2018-09-02T19:23:19.183Z,4.80
2018-09-02T19:25:49.273Z,4.60
2018-09-02T19:28:24.623Z,5.20
2018-09-02T19:30:54.256Z,5.00
2018-09-02T19:33:23.591Z,4.80
2018-09-02T19:35:52.767Z,4.23
2018-09-02T19:38:22.096Z,4.40
2018-09-02T19:41:00.991Z,4.10
2018-09-02T19:43:32.083Z,4.50
2018-09-02T19:46:01.403Z,4.43
2018-09-02T19:48:30.700Z,4.53
2018-09-02T19:51:00.625Z,4.60
2018-09-02T19:53:30.287Z,4.90
2018-09-02T19:55:59.559Z,4.27
2018-09-02T19:58:28.821Z,4.70
2018-09-02T20:00:59.930Z,4.10
2018-09-02T20:03:29.199Z,4.47
2018-09-02T20:05:58.994Z,4.20
2018-09-02T20:08:30.085Z,4.70
2018-09-02T20:11:00.134Z,4.20
2018-09-02T20:13:31.014Z,4.50
2018-09-02T20:16:00.685Z,4.83
2018-09-02T20:18:29.875Z,4.40
2018-09-02T20:20:59.311Z,4.50
2018-09-02T20:23:28.468Z,4.73
2018-09-02T20:25:57.739Z,4.40
2018-09-02T20:28:26.994Z,4.47
2018-09-02T20:30:56.435Z,5.03
2018-09-02T20:33:25.638Z,4.03
2018-09-02T20:35:54.900Z,5.30
2018-09-02T20:38:24.014Z,4.60
2018-09-02T20:40:53.257Z,4.60
2018-09-02T20:43:22.462Z,4.90
2018-09-02T20:45:51.618Z,4.47
2018-09-02T20:48:20.776Z,4.73
2018-09-02T20:50:50.453Z,5.37
2018-09-02T20:53:21.639Z,5.10
2018-09-02T20:55:51.403Z,5.00
2018-09-02T20:58:21.295Z,4.67
2018-09-02T21:00:50.573Z,4.83
2018-09-02T21:03:19.722Z,5.00
2018-09-02T21:05:48.967Z,5.00
2018-09-02T21:08:18.132Z,4.90
2018-09-02T21:10:47.322Z,5.07
2018-09-02T21:13:16.474Z,4.67
2018-09-02T21:15:45.703Z,6.07
2018-09-02T21:18:14.906Z,5.90
2018-09-02T21:20:44.191Z,5.03
2018-09-02T21:23:13.443Z,5.00
2018-09-02T21:25:42.598Z,4.73
2018-09-02T21:28:11.755Z,4.47
2018-09-02T21:30:40.985Z,5.30
2018-09-02T21:33:10.147Z,5.10
2018-09-02T21:35:39.746Z,5.17
2018-09-02T21:38:08.898Z,5.33
2018-09-02T21:40:41.319Z,5.33
2018-09-02T21:43:10.560Z,5.07
2018-09-02T21:45:39.731Z,4.70
2018-09-02T21:48:08.898Z,5.63
2018-09-02T21:50:38.278Z,4.90
2018-09-02T21:53:07.652Z,5.00
2018-09-02T21:55:36.814Z,5.67
2018-09-02T21:58:06.022Z,5.57
2018-09-02T22:00:35.176Z,5.60
2018-09-02T22:03:07.850Z,6.67
2018-09-02T22:05:37.132Z,4.80
2018-09-02T22:08:06.374Z,6.60
2018-09-02T22:10:36.226Z,6.47
2018-09-02T22:13:05.490Z,5.83
2018-09-02T22:15:34.639Z,5.90
2018-09-02T22:18:04.446Z,5.70
2018-09-02T22:20:33.602Z,5.90
2018-09-02T22:23:02.758Z,5.07
2018-09-02T22:25:31.949Z,5.00
2018-09-02T22:28:04.616Z,5.50
2018-09-02T22:30:33.759Z,5.20
2018-09-02T22:33:02.918Z,4.93
2018-09-02T22:35:32.058Z,4.97
2018-09-02T22:38:01.246Z,5.53
2018-09-02T22:40:31.252Z,5.53
2018-09-02T22:43:00.431Z,5.20
2018-09-02T22:45:29.581Z,5.27
2018-09-02T22:48:00.423Z,6.20
2018-09-02T22:50:29.623Z,5.77
2018-09-02T22:52:58.787Z,6.80
2018-09-02T22:55:27.962Z,5.83
2018-09-02T22:57:57.741Z,6.20
2018-09-02T23:00:31.615Z,5.87
2018-09-02T23:03:00.776Z,5.73
2018-09-02T23:05:29.958Z,5.97
2018-09-02T23:07:59.159Z,5.87
2018-09-02T23:10:28.349Z,6.00
2018-09-02T23:12:57.542Z,6.00
2018-09-02T23:15:26.707Z,5.77
2018-09-02T23:17:57.169Z,5.93
2018-09-02T23:20:26.342Z,5.17
2018-09-02T23:22:55.567Z,5.00
2018-09-02T23:25:24.744Z,5.10
2018-09-02T23:27:53.894Z,5.13
2018-09-02T23:30:23.840Z,4.70
2018-09-02T23:32:53.120Z,5.33
2018-09-02T23:35:22.248Z,4.90
2018-09-02T23:37:51.431Z,5.20
2018-09-02T23:40:20.571Z,6.07
2018-09-02T23:42:49.759Z,5.40
2018-09-02T23:45:18.951Z,5.63
2018-09-02T23:47:48.158Z,5.17
2018-09-02T23:50:17.315Z,5.13
2018-09-02T23:52:47.352Z,5.20
2018-09-02T23:55:16.522Z,4.83
2018-09-02T23:57:45.736Z,5.20
